Time;durP1;ratioP1;P1;durP2;ratioP2;P2;SDS_P1;SDS_P2;PMS_P1;PMS_P2;Temp;Humidity;BMP_temperature;BMP_pressure;BME280_temperature;BME280_humidity;BME280_pressure;Samples;Min_cycle;Max_cycle;Signal;HPM_P1;HPM_P2
2021/06/20 00:00:24;;;;;;;37.83;20.23;;;;;;;22.52;52.74;98257.16;5085880;28;20032;-72
2021/06/20 00:02:51;;;;;;;30.38;17.58;;;;;;;22.58;52.51;98253.66;5101947;28;20395;-72
2021/06/20 00:05:19;;;;;;;25.25;14.82;;;;;;;22.60;52.73;98254.06;5090185;28;20052;-74
2021/06/20 00:07:45;;;;;;;23.05;14.57;;;;;;;22.62;52.55;98264.06;5090808;28;20070;-76
2021/06/20 00:10:17;;;;;;;24.83;14.73;;;;;;;22.60;52.66;98253.25;5088955;28;20028;-74
2021/06/20 00:12:43;;;;;;;25.58;13.85;;;;;;;22.62;52.52;98255.69;5088319;28;20096;-75
2021/06/20 00:15:11;;;;;;;26.90;16.48;;;;;;;22.60;52.67;98254.06;5090021;28;20429;-75
2021/06/20 00:17:38;;;;;;;24.15;16.20;;;;;;;22.56;52.68;98247.63;5090273;28;20032;-74
2021/06/20 00:20:06;;;;;;;31.10;16.63;;;;;;;22.54;52.40;98244.41;5089545;28;20020;-77
2021/06/20 00:22:31;;;;;;;23.67;14.50;;;;;;;22.55;52.63;98246.03;5090401;28;20020;-77
2021/06/20 00:24:57;;;;;;;21.35;13.45;;;;;;;22.52;52.68;98245.97;5089629;28;20139;-77
2021/06/20 00:27:23;;;;;;;22.17;13.30;;;;;;;22.48;52.68;98247.91;5090290;28;20042;-75
2021/06/20 00:29:48;;;;;;;20.65;12.70;;;;;;;22.42;52.70;98239.03;5089089;28;20024;-73
2021/06/20 00:32:13;;;;;;;22.73;12.30;;;;;;;22.36;52.70;98240.56;5088695;28;20025;-74
2021/06/20 00:34:39;;;;;;;23.38;13.88;;;;;;;22.28;52.90;98236.88;5091708;28;20023;-72
2021/06/20 00:37:06;;;;;;;20.15;13.25;;;;;;;22.19;53.01;98239.16;5088458;28;20491;-72
2021/06/20 00:39:31;;;;;;;21.90;13.52;;;;;;;22.04;53.02;98238.97;5087223;28;20478;-71
2021/06/20 00:41:57;;;;;;;21.02;12.60;;;;;;;21.98;53.42;98238.50;5093742;28;20105;-71
2021/06/20 00:44:22;;;;;;;20.73;13.27;;;;;;;21.93;53.43;98236.03;5091981;28;20020;-73
2021/06/20 00:46:47;;;;;;;25.05;14.32;;;;;;;21.95;53.79;98238.47;5085379;28;20036;-71
2021/06/20 00:49:13;;;;;;;21.90;13.70;;;;;;;21.92;53.70;98242.03;5092478;28;20022;-71
2021/06/20 00:51:39;;;;;;;21.42;14.20;;;;;;;21.87;53.90;98234.75;5091625;28;20020;-71
2021/06/20 00:54:05;;;;;;;26.13;13.90;;;;;;;21.88;53.89;98232.78;5089560;28;20371;-71
2021/06/20 00:56:32;;;;;;;20.70;13.57;;;;;;;21.85;54.02;98239.91;5092269;28;20020;-70
2021/06/20 00:59:04;;;;;;;23.52;13.60;;;;;;;21.87;54.28;98237.56;5089751;28;20016;-71
2021/06/20 01:01:31;;;;;;;18.95;12.73;;;;;;;21.83;54.31;98234.72;5088805;28;20031;-72
2021/06/20 01:03:57;;;;;;;22.33;13.68;;;;;;;21.80;54.21;98224.31;5089963;28;20020;-72
2021/06/20 01:06:23;;;;;;;19.48;12.88;;;;;;;21.74;54.30;98220.22;5089507;28;20035;-72
2021/06/20 01:08:48;;;;;;;19.42;13.57;;;;;;;21.68;54.82;98221.72;5087242;28;20492;-72
2021/06/20 01:11:14;;;;;;;23.73;12.45;;;;;;;21.62;54.65;98214.88;5090975;28;20018;-71
2021/06/20 01:13:39;;;;;;;18.35;12.80;;;;;;;21.55;54.98;98205.19;5091439;28;20027;-70
2021/06/20 01:16:05;;;;;;;22.55;14.05;;;;;;;21.49;55.01;98209.50;5091510;28;20032;-71
2021/06/20 01:18:30;;;;;;;24.30;13.70;;;;;;;21.47;55.29;98208.25;5091994;28;20363;-72
2021/06/20 01:20:56;;;;;;;21.05;13.77;;;;;;;21.41;55.28;98202.97;5091545;28;20445;-71
2021/06/20 01:23:21;;;;;;;18.42;13.93;;;;;;;21.39;55.86;98208.16;5087251;28;20028;-71
2021/06/20 01:25:46;;;;;;;20.42;14.77;;;;;;;21.38;55.61;98203.75;5091540;28;20404;-70
2021/06/20 01:28:14;;;;;;;24.15;14.32;;;;;;;21.39;55.71;98212.91;5089447;28;20025;-71
2021/06/20 01:30:46;;;;;;;21.23;14.27;;;;;;;21.40;55.65;98215.31;5088189;28;20561;-71
2021/06/20 01:33:13;;;;;;;21.75;14.75;;;;;;;21.41;55.88;98207.78;5089287;28;20028;-71
2021/06/20 01:35:40;;;;;;;22.23;13.93;;;;;;;21.39;55.87;98212.91;5088272;28;20360;-72
2021/06/20 01:38:08;;;;;;;20.45;13.35;;;;;;;21.35;56.01;98203.69;5090456;28;20480;-71
2021/06/20 01:40:34;;;;;;;19.27;13.35;;;;;;;21.27;56.51;98205.56;5091424;28;20454;-72
2021/06/20 01:43:00;;;;;;;20.08;13.45;;;;;;;21.21;56.37;98201.50;5092263;28;20380;-72
2021/06/20 01:45:26;;;;;;;18.65;12.70;;;;;;;21.17;56.39;98206.19;5091722;28;20016;-70
2021/06/20 01:47:55;;;;;;;19.55;13.45;;;;;;;21.09;56.44;98199.72;5090435;28;20371;-71
2021/06/20 01:50:21;;;;;;;21.23;14.45;;;;;;;21.06;56.70;98200.44;5087092;28;20421;-72
2021/06/20 01:52:58;;;;;;;21.88;13.32;;;;;;;21.02;56.86;98192.00;5088701;28;20544;-72
2021/06/20 01:55:23;;;;;;;24.17;13.52;;;;;;;21.02;56.99;98189.22;5087919;28;20110;-71
2021/06/20 01:57:48;;;;;;;18.83;13.90;;;;;;;21.03;57.31;98187.25;5090501;28;20165;-71
2021/06/20 02:00:16;;;;;;;18.55;13.57;;;;;;;20.96;56.97;98190.75;5090558;28;20028;-71
2021/06/20 02:02:43;;;;;;;20.73;13.52;;;;;;;20.91;56.89;98191.06;5089667;28;20024;-71
2021/06/20 02:05:10;;;;;;;21.83;14.32;;;;;;;20.88;57.15;98178.66;5090651;28;20039;-71
2021/06/20 02:07:37;;;;;;;21.60;14.35;;;;;;;20.94;57.13;98184.72;5089165;28;20028;-72
2021/06/20 02:10:06;;;;;;;22.80;15.10;;;;;;;20.97;57.37;98182.00;5087827;28;20024;-72
2021/06/20 02:12:31;;;;;;;21.63;14.65;;;;;;;21.02;57.16;98183.66;5089435;28;20024;-71
2021/06/20 02:14:57;;;;;;;22.50;14.23;;;;;;;21.04;57.17;98186.09;5087993;28;20031;-72
2021/06/20 02:17:33;;;;;;;22.05;14.88;;;;;;;21.05;57.26;98177.31;5087198;28;20361;-71
2021/06/20 02:20:05;;;;;;;21.67;14.15;;;;;;;21.05;57.18;98171.75;5088658;28;20020;-72
2021/06/20 02:22:31;;;;;;;20.73;14.73;;;;;;;21.02;57.34;98182.84;5082339;28;20472;-72
2021/06/20 02:24:57;;;;;;;23.90;14.48;;;;;;;21.00;57.36;98182.44;5088231;28;20032;-71
2021/06/20 02:27:23;;;;;;;24.67;14.75;;;;;;;21.01;57.44;98182.03;5089284;28;20480;-71
2021/06/20 02:29:51;;;;;;;22.23;14.57;;;;;;;21.03;57.34;98192.84;5089290;28;20032;-71
2021/06/20 02:32:17;;;;;;;20.92;14.40;;;;;;;21.03;57.61;98188.03;5087337;28;20024;-71
2021/06/20 02:34:43;;;;;;;20.30;14.13;;;;;;;21.02;57.49;98180.06;5088297;28;20036;-71
2021/06/20 02:37:09;;;;;;;21.35;14.75;;;;;;;20.99;57.56;98186.38;5086458;28;20056;-71
2021/06/20 02:39:36;;;;;;;23.48;14.65;;;;;;;20.94;57.61;98179.94;5090504;28;20027;-71
2021/06/20 02:42:03;;;;;;;24.58;15.57;;;;;;;20.88;57.57;98173.06;5089691;28;20549;-71
2021/06/20 02:44:28;;;;;;;22.35;14.18;;;;;;;20.80;57.79;98174.13;5089692;28;20077;-71
2021/06/20 02:46:57;;;;;;;22.15;14.82;;;;;;;20.76;57.82;98176.03;5089079;28;20036;-70
2021/06/20 02:49:22;;;;;;;25.77;15.17;;;;;;;20.74;58.01;98170.81;5087415;28;20024;-72
2021/06/20 02:51:48;;;;;;;19.77;13.68;;;;;;;20.72;58.04;98164.03;5088766;28;20293;-71
2021/06/20 02:54:13;;;;;;;21.13;13.48;;;;;;;20.70;58.04;98172.75;5089044;28;20032;-71
2021/06/20 02:56:39;;;;;;;26.70;14.00;;;;;;;20.68;58.04;98170.34;5088109;28;20392;-70
2021/06/20 02:59:05;;;;;;;24.23;13.88;;;;;;;20.66;58.10;98167.13;5087452;28;20465;-71
2021/06/20 03:01:30;;;;;;;21.65;14.15;;;;;;;20.60;58.28;98162.19;5088033;28;20039;-71
2021/06/20 03:03:56;;;;;;;22.90;15.80;;;;;;;20.55;58.40;98162.53;5088313;28;20024;-70
2021/06/20 03:06:21;;;;;;;30.17;17.13;;;;;;;20.55;58.36;98174.47;5088530;28;20028;-70
2021/06/20 03:08:46;;;;;;;26.83;15.77;;;;;;;20.51;58.61;98179.16;5089581;28;20045;-70
2021/06/20 03:11:12;;;;;;;26.83;15.57;;;;;;;20.46;58.49;98166.34;5090306;28;20027;-71
2021/06/20 03:13:38;;;;;;;25.30;16.17;;;;;;;20.47;58.91;98178.28;5086933;28;20143;-71
2021/06/20 03:16:04;;;;;;;28.80;15.13;;;;;;;20.47;58.76;98178.28;5090189;28;20020;-71
2021/06/20 03:18:29;;;;;;;25.10;15.23;;;;;;;20.48;58.75;98180.72;5089362;28;20020;-71
2021/06/20 03:20:54;;;;;;;24.20;14.98;;;;;;;20.52;58.94;98180.78;5092439;28;20515;-71
2021/06/20 03:23:20;;;;;;;22.05;15.63;;;;;;;20.50;59.01;98172.81;5089846;28;20024;-71
2021/06/20 03:25:45;;;;;;;26.98;15.05;;;;;;;20.51;59.08;98179.16;5093525;28;20019;-70
2021/06/20 03:28:11;;;;;;;26.23;15.50;;;;;;;20.52;59.09;98175.19;5091081;28;20137;-71
2021/06/20 03:30:37;;;;;;;25.35;15.65;;;;;;;20.49;58.86;98173.16;5088820;28;20029;-71
2021/06/20 03:33:03;;;;;;;26.73;15.90;;;;;;;20.50;59.02;98175.59;5091216;28;20476;-71
2021/06/20 03:35:28;;;;;;;25.17;15.73;;;;;;;20.50;59.03;98177.56;5091344;28;20384;-70
2021/06/20 03:37:54;;;;;;;21.98;13.98;;;;;;;20.45;59.12;98189.81;5092247;28;20024;-72
2021/06/20 03:40:20;;;;;;;25.42;16.80;;;;;;;20.39;59.56;98191.28;5093398;28;20032;-71
2021/06/20 03:42:46;;;;;;;27.85;16.75;;;;;;;20.39;59.43;98188.50;5092682;28;20116;-70
2021/06/20 03:45:11;;;;;;;29.95;16.73;;;;;;;20.39;59.50;98191.28;5093243;28;20111;-70
2021/06/20 03:47:37;;;;;;;28.08;17.10;;;;;;;20.42;59.60;98198.91;5092677;28;20141;-70
2021/06/20 03:50:04;;;;;;;33.67;16.67;;;;;;;20.40;59.89;98192.06;5093227;28;20073;-71
2021/06/20 03:52:30;;;;;;;30.35;16.80;;;;;;;20.45;59.63;98200.97;5091515;28;20418;-72
2021/06/20 03:54:55;;;;;;;26.63;15.65;;;;;;;20.48;59.75;98203.00;5092141;28;20085;-71
2021/06/20 03:57:22;;;;;;;27.95;16.85;;;;;;;20.55;59.81;98207.91;5091202;28;20082;-71
2021/06/20 03:59:48;;;;;;;26.80;15.77;;;;;;;20.60;59.92;98209.56;5091331;28;20032;-72
2021/06/20 04:02:14;;;;;;;28.33;16.85;;;;;;;20.60;59.68;98198.41;5091178;28;20380;-71
2021/06/20 04:04:41;;;;;;;26.70;16.15;;;;;;;20.63;59.78;98214.41;5092014;28;20123;-71
2021/06/20 04:07:07;;;;;;;27.25;15.13;;;;;;;20.65;59.68;98207.28;5093082;28;20066;-71
2021/06/20 04:09:33;;;;;;;23.98;15.70;;;;;;;20.72;59.89;98212.19;5091948;28;20013;-71
2021/06/20 04:11:58;;;;;;;23.83;14.52;;;;;;;20.78;59.65;98209.94;5088911;28;20055;-71
2021/06/20 04:14:23;;;;;;;23.90;14.80;;;;;;;20.79;59.58;98201.19;5092164;28;20027;-71
2021/06/20 04:16:48;;;;;;;19.65;13.20;;;;;;;20.80;59.65;98190.84;5093106;28;20020;-72
2021/06/20 04:19:15;;;;;;;21.85;12.90;;;;;;;20.84;59.91;98188.13;5093204;28;20024;-71
2021/06/20 04:21:40;;;;;;;19.95;13.95;;;;;;;20.77;59.93;98183.25;5092104;28;20028;-71
2021/06/20 04:24:06;;;;;;;21.02;14.23;;;;;;;20.73;59.91;98177.56;5091472;28;20042;-70
2021/06/20 04:26:31;;;;;;;24.13;15.38;;;;;;;20.71;60.11;98176.34;5092212;28;20036;-71
2021/06/20 04:28:57;;;;;;;22.75;14.20;;;;;;;20.72;60.14;98183.53;5088248;28;20039;-71
2021/06/20 04:31:22;;;;;;;24.40;15.73;;;;;;;20.72;60.32;98194.66;5091268;28;20534;-71
2021/06/20 04:33:47;;;;;;;20.67;14.30;;;;;;;20.71;60.24;98193.06;5089222;28;20036;-72
2021/06/20 04:36:13;;;;;;;25.80;14.43;;;;;;;20.70;60.54;98195.03;5092597;28;20533;-71
2021/06/20 04:38:39;;;;;;;23.67;14.82;;;;;;;20.74;60.74;98195.09;5091731;28;20023;-72
2021/06/20 04:41:07;;;;;;;21.23;13.57;;;;;;;20.75;60.51;98205.09;5090682;28;20020;-71
2021/06/20 04:43:42;;;;;;;20.98;13.32;;;;;;;20.77;60.40;98209.13;5091207;28;20457;-71
2021/06/20 04:46:29;;;;;;;22.65;14.20;;;;;;;20.81;60.30;98210.00;5089116;28;20057;-72
2021/06/20 04:48:57;;;;;;;20.27;12.88;;;;;;;20.82;60.54;98208.81;5091230;28;20015;-69
2021/06/20 04:51:22;;;;;;;23.55;13.48;;;;;;;20.84;60.67;98202.88;5091453;28;20028;-70
2021/06/20 04:53:49;;;;;;;20.60;11.50;;;;;;;20.88;60.56;98200.16;5090324;28;20484;-71
2021/06/20 04:56:14;;;;;;;19.15;12.40;;;;;;;20.89;60.49;98199.78;5092349;28;20028;-70
2021/06/20 04:58:41;;;;;;;22.20;12.52;;;;;;;20.91;60.53;98191.84;5090581;28;20032;-72
2021/06/20 05:01:06;;;;;;;18.45;13.45;;;;;;;20.95;60.75;98203.06;5090622;28;20035;-71
2021/06/20 05:03:32;;;;;;;21.15;13.45;;;;;;;21.02;60.75;98208.75;5088887;28;20024;-72
2021/06/20 05:05:57;;;;;;;25.33;13.75;;;;;;;21.07;60.87;98205.66;5090876;28;20097;-73
2021/06/20 05:08:23;;;;;;;19.52;12.48;;;;;;;21.15;60.83;98219.72;5092116;28;21299;-72
2021/06/20 05:10:51;;;;;;;18.48;13.10;;;;;;;21.18;60.75;98219.78;5091678;28;20020;-72
2021/06/20 05:13:16;;;;;;;20.90;12.43;;;;;;;21.21;60.74;98223.78;5088066;28;20027;-72
2021/06/20 05:15:41;;;;;;;15.15;11.23;;;;;;;21.24;60.64;98225.84;5090291;28;20028;-72
2021/06/20 05:18:07;;;;;;;17.42;11.10;;;;;;;21.23;60.67;98219.44;5092137;28;20032;-71
2021/06/20 05:20:32;;;;;;;16.90;10.50;;;;;;;21.22;60.61;98228.97;5089477;28;20424;-71
2021/06/20 05:22:57;;;;;;;19.27;12.68;;;;;;;21.22;60.72;98217.03;5090769;28;20036;-72
2021/06/20 05:25:23;;;;;;;15.75;10.48;;;;;;;21.23;60.89;98230.59;5085316;28;20107;-71
2021/06/20 05:27:48;;;;;;;20.40;12.23;;;;;;;21.25;60.70;98233.03;5086472;28;20039;-70
2021/06/20 05:30:14;;;;;;;18.48;11.48;;;;;;;21.32;60.97;98243.47;5089250;28;20020;-70
2021/06/20 05:32:40;;;;;;;17.33;12.20;;;;;;;21.41;60.93;98249.63;5090109;28;20766;-71
2021/06/20 05:35:06;;;;;;;17.55;11.75;;;;;;;21.51;60.84;98256.53;5086983;28;20016;-71
2021/06/20 05:37:31;;;;;;;17.92;11.60;;;;;;;21.61;60.66;98250.31;5088205;28;20020;-71
2021/06/20 05:39:56;;;;;;;16.63;11.90;;;;;;;21.73;60.67;98248.53;5089468;28;20028;-71
2021/06/20 05:42:22;;;;;;;17.83;11.52;;;;;;;21.85;60.56;98249.09;5088023;28;20094;-71
2021/06/20 05:44:47;;;;;;;19.23;11.57;;;;;;;21.94;60.21;98248.03;5087842;28;20036;-71
2021/06/20 05:47:13;;;;;;;15.70;11.70;;;;;;;22.00;60.07;98252.91;5089768;28;20031;-70
2021/06/20 05:49:38;;;;;;;16.40;11.63;;;;;;;22.05;59.81;98250.97;5091033;28;20043;-71
2021/06/20 05:52:04;;;;;;;17.27;10.77;;;;;;;22.16;59.75;98263.88;5089107;28;20631;-71
2021/06/20 05:54:29;;;;;;;16.92;10.82;;;;;;;22.21;59.54;98265.53;5085955;28;20180;-70
2021/06/20 05:56:54;;;;;;;18.35;11.95;;;;;;;22.27;59.70;98263.22;5087734;28;20542;-72
2021/06/20 05:59:20;;;;;;;21.08;11.68;;;;;;;22.36;59.58;98262.91;5091133;28;20051;-71
2021/06/20 06:01:45;;;;;;;15.38;11.70;;;;;;;22.43;59.50;98260.22;5082795;28;20380;-72
2021/06/20 06:04:10;;;;;;;18.40;11.73;;;;;;;22.53;59.50;98265.16;5089685;28;20565;-70
2021/06/20 06:06:36;;;;;;;18.52;11.35;;;;;;;22.63;59.38;98258.06;5088704;28;20103;-71
2021/06/20 06:09:01;;;;;;;19.05;12.25;;;;;;;22.71;59.39;98247.75;5087749;28;20158;-71
2021/06/20 06:11:27;;;;;;;16.90;11.50;;;;;;;22.84;59.29;98242.69;5090728;28;20082;-72
2021/06/20 06:13:52;;;;;;;17.13;12.18;;;;;;;22.93;59.25;98232.00;5089239;28;20062;-73
2021/06/20 06:16:18;;;;;;;18.20;11.32;;;;;;;23.03;59.10;98234.09;5091212;28;20028;-71
2021/06/20 06:18:43;;;;;;;16.10;11.25;;;;;;;23.13;58.98;98232.59;5089769;28;20468;-71
2021/06/20 06:21:09;;;;;;;17.65;11.30;;;;;;;23.22;58.86;98231.47;5089847;28;20028;-71
2021/06/20 06:23:35;;;;;;;15.98;10.63;;;;;;;23.31;58.61;98240.38;5091652;28;20024;-73
2021/06/20 06:26:00;;;;;;;17.00;11.00;;;;;;;23.41;58.45;98238.84;5091200;28;20039;-72
2021/06/20 06:28:26;;;;;;;15.30;12.10;;;;;;;23.48;58.30;98228.50;5089920;28;20031;-72
2021/06/20 06:30:51;;;;;;;14.18;10.90;;;;;;;23.56;57.82;98237.75;5091313;28;20058;-72
2021/06/20 06:33:16;;;;;;;16.42;11.30;;;;;;;23.63;57.68;98218.22;5089818;28;20063;-74
2021/06/20 06:35:42;;;;;;;15.45;12.45;;;;;;;23.71;57.66;98221.84;5089606;28;20047;-73
2021/06/20 06:38:07;;;;;;;15.20;11.45;;;;;;;23.82;57.59;98221.91;5091358;28;20028;-74
2021/06/20 06:40:33;;;;;;;18.33;11.73;;;;;;;23.92;57.31;98215.56;5090457;28;20470;-73
2021/06/20 06:42:58;;;;;;;15.15;10.70;;;;;;;24.01;57.10;98215.22;5091248;28;20043;-72
2021/06/20 06:45:24;;;;;;;17.50;10.98;;;;;;;24.10;57.00;98217.66;5090996;28;20425;-72
2021/06/20 06:47:50;;;;;;;17.83;12.13;;;;;;;24.16;56.84;98216.09;5089132;28;20028;-72
2021/06/20 06:50:15;;;;;;;17.35;11.75;;;;;;;24.24;56.63;98228.16;5088731;28;20031;-72
2021/06/20 06:52:41;;;;;;;20.60;11.98;;;;;;;24.30;56.74;98218.16;5088341;28;20058;-72
2021/06/20 06:55:09;;;;;;;20.55;12.45;;;;;;;24.40;56.78;98221.38;5088149;28;20491;-71
2021/06/20 06:57:35;;;;;;;20.65;12.07;;;;;;;24.49;56.26;98217.00;5093426;28;20024;-72
2021/06/20 07:00:00;;;;;;;18.20;12.52;;;;;;;24.58;56.22;98211.03;5093273;28;20042;-72
2021/06/20 07:02:26;;;;;;;17.23;11.77;;;;;;;24.65;56.00;98210.25;5090881;28;20047;-73
2021/06/20 07:04:52;;;;;;;16.42;12.10;;;;;;;24.74;56.20;98202.28;5091402;28;20040;-71
2021/06/20 07:07:17;;;;;;;19.05;12.50;;;;;;;24.84;56.15;98211.13;5089541;28;20392;-72
2021/06/20 07:09:42;;;;;;;16.50;12.00;;;;;;;24.92;56.10;98201.50;5094755;28;20103;-72
2021/06/20 07:12:08;;;;;;;19.38;12.63;;;;;;;25.02;55.93;98197.09;5093338;28;20040;-72
2021/06/20 07:14:35;;;;;;;14.75;12.20;;;;;;;25.10;55.92;98193.06;5090935;28;20028;-72
2021/06/20 07:17:04;;;;;;;16.25;12.32;;;;;;;25.18;55.52;98189.06;5093663;28;20028;-73
2021/06/20 07:19:30;;;;;;;17.75;12.05;;;;;;;25.28;55.50;98195.88;5090317;28;20016;-72
2021/06/20 07:21:55;;;;;;;17.88;12.27;;;;;;;25.35;55.79;98197.88;5093769;28;20088;-72
2021/06/20 07:24:21;;;;;;;19.65;13.05;;;;;;;25.46;55.50;98201.53;5094419;28;20027;-72
2021/06/20 07:26:46;;;;;;;17.25;12.45;;;;;;;25.55;55.29;98196.28;5094785;28;20028;-73
2021/06/20 07:29:11;;;;;;;19.67;12.15;;;;;;;25.65;55.58;98196.66;5094453;28;20024;-72
2021/06/20 07:31:37;;;;;;;18.27;12.52;;;;;;;25.71;55.59;98195.84;5094229;28;20422;-72
2021/06/20 07:34:02;;;;;;;18.83;11.90;;;;;;;25.79;55.02;98193.81;5086785;28;20476;-72
2021/06/20 07:36:28;;;;;;;19.52;14.60;;;;;;;25.86;54.89;98198.63;5090059;28;20107;-73
2021/06/20 07:38:53;;;;;;;17.08;13.55;;;;;;;25.88;55.12;98196.19;5088957;28;20483;-73
2021/06/20 07:41:18;;;;;;;19.13;13.32;;;;;;;25.90;54.46;98199.41;5093769;28;20028;-73
2021/06/20 07:43:44;;;;;;;16.55;13.63;;;;;;;25.96;54.67;98196.97;5092022;28;20342;-71
2021/06/20 07:46:09;;;;;;;19.75;13.25;;;;;;;25.99;54.28;98184.91;5095177;28;20029;-72
2021/06/20 07:48:35;;;;;;;19.65;13.40;;;;;;;26.02;54.03;98195.34;5076565;28;20024;-73
2021/06/20 07:51:01;;;;;;;17.63;13.05;;;;;;;26.09;54.15;98191.69;5077511;28;20031;-72
2021/06/20 07:53:26;;;;;;;19.33;12.77;;;;;;;26.18;54.11;98191.31;5078357;28;20024;-74
2021/06/20 07:55:52;;;;;;;18.35;12.63;;;;;;;26.24;53.94;98189.69;5076295;28;20048;-72
2021/06/20 07:58:17;;;;;;;18.15;12.90;;;;;;;26.27;54.06;98183.22;5074571;28;20335;-72
2021/06/20 08:00:42;;;;;;;15.23;12.35;;;;;;;26.32;53.81;98190.44;5079875;28;20059;-73
2021/06/20 08:03:08;;;;;;;22.55;20.02;;;;;;;26.33;53.61;98192.81;5076075;28;20039;-73
2021/06/20 08:05:34;;;;;;;17.50;14.50;;;;;;;26.38;53.78;98194.41;5074493;28;20048;-72
2021/06/20 08:08:00;;;;;;;15.27;12.88;;;;;;;26.48;53.59;98195.56;5073784;28;20043;-72
2021/06/20 08:10:25;;;;;;;25.08;15.82;;;;;;;26.54;53.32;98193.91;5074790;28;20053;-72
2021/06/20 08:12:51;;;;;;;19.13;13.13;;;;;;;26.60;53.03;98192.28;5074813;28;20025;-73
2021/06/20 08:15:16;;;;;;;15.60;12.98;;;;;;;26.66;53.70;98193.44;5073339;28;20024;-72
2021/06/20 08:17:42;;;;;;;21.65;14.30;;;;;;;26.71;52.98;98195.81;5074631;28;20035;-72
2021/06/20 08:20:09;;;;;;;20.05;16.20;;;;;;;26.75;53.02;98185.34;5093314;28;20048;-73
2021/06/20 08:22:34;;;;;;;18.25;14.65;;;;;;;26.80;53.08;98188.94;5094167;28;20093;-73
2021/06/20 08:25:00;;;;;;;16.13;12.98;;;;;;;26.87;53.11;98181.28;5094699;28;20032;-73
2021/06/20 08:27:25;;;;;;;15.95;11.90;;;;;;;26.95;53.02;98187.66;5088825;28;20067;-74
2021/06/20 08:29:53;;;;;;;15.43;12.60;;;;;;;27.00;52.58;98178.75;5089330;28;20029;-73
2021/06/20 08:32:19;;;;;;;17.00;12.57;;;;;;;27.07;52.76;98179.91;5074290;28;20043;-72
2021/06/20 08:34:44;;;;;;;15.35;12.52;;;;;;;27.11;52.35;98173.03;5074120;28;20020;-74
2021/06/20 08:37:10;;;;;;;17.35;13.32;;;;;;;27.15;52.51;98175.81;5088531;28;20071;-72
2021/06/20 08:39:35;;;;;;;16.77;12.68;;;;;;;27.21;52.03;98176.97;5079290;28;20067;-73
2021/06/20 08:42:00;;;;;;;19.52;16.20;;;;;;;27.24;52.03;98164.88;5079832;28;20024;-72
2021/06/20 08:44:32;;;;;;;17.83;14.85;;;;;;;27.26;51.69;98172.91;5093574;28;20024;-72
2021/06/20 08:46:59;;;;;;;48.95;13.20;;;;;;;27.26;51.55;98173.69;5092775;28;20066;-73
2021/06/20 08:49:26;;;;;;;14.82;11.93;;;;;;;27.32;51.88;98166.41;5092279;28;20035;-74
2021/06/20 08:51:53;;;;;;;17.60;13.43;;;;;;;27.37;51.08;98158.72;5083707;28;20032;-72
2021/06/20 08:54:19;;;;;;;19.27;13.38;;;;;;;27.43;51.11;98151.44;5090376;28;20023;-73
2021/06/20 08:56:47;;;;;;;19.92;13.20;;;;;;;27.48;51.03;98154.59;5088640;28;20476;-73
2021/06/20 08:59:13;;;;;;;15.77;11.75;;;;;;;27.56;51.35;98144.06;5091369;28;20030;-72
2021/06/20 09:01:40;;;;;;;13.35;12.05;;;;;;;27.61;51.00;98143.59;5091182;28;20541;-71
2021/06/20 09:04:05;;;;;;;15.77;13.20;;;;;;;27.66;50.82;98138.72;5093540;28;20028;-73
2021/06/20 09:06:32;;;;;;;17.90;13.02;;;;;;;27.72;50.78;98131.41;5088215;28;20036;-73
2021/06/20 09:09:00;;;;;;;16.50;12.95;;;;;;;27.81;50.61;98136.53;5083759;28;20029;-70
2021/06/20 09:11:32;;;;;;;18.35;12.93;;;;;;;27.87;50.61;98132.03;5081463;28;20047;-71
2021/06/20 09:14:02;;;;;;;19.05;13.50;;;;;;;27.93;50.22;98125.50;5073517;28;20108;-70
2021/06/20 09:16:28;;;;;;;16.48;13.55;;;;;;;28.01;49.82;98125.41;5074755;28;20127;-70
2021/06/20 09:18:53;;;;;;;17.25;12.80;;;;;;;28.06;49.89;98127.78;5088432;28;20080;-70
2021/06/20 09:21:26;;;;;;;14.32;12.30;;;;;;;28.10;49.83;98122.88;5087771;28;20400;-70
2021/06/20 09:23:54;;;;;;;13.43;11.23;;;;;;;28.20;49.95;98132.44;5076652;28;20029;-69
2021/06/20 09:26:40;;;;;;;16.73;12.02;;;;;;;28.28;49.47;98127.53;5082130;28;20060;-70
2021/06/20 09:29:07;;;;;;;14.65;12.82;;;;;;;28.32;49.10;98131.88;5083184;28;20384;-71
2021/06/20 09:31:44;;;;;;;14.73;12.38;;;;;;;28.36;49.17;98131.81;5080444;28;20100;-72
2021/06/20 09:34:09;;;;;;;17.10;12.30;;;;;;;28.44;49.06;98136.13;5073132;28;20025;-72
2021/06/20 09:36:35;;;;;;;13.35;10.95;;;;;;;28.51;49.07;98141.66;5072898;28;20499;-71
2021/06/20 09:39:00;;;;;;;15.60;12.98;;;;;;;28.57;48.83;98144.78;5073104;28;20384;-72
2021/06/20 09:41:25;;;;;;;24.42;12.20;;;;;;;28.62;48.22;98135.06;5075454;28;20488;-70
2021/06/20 09:43:55;;;;;;;16.80;10.98;;;;;;;28.68;48.78;98141.84;5081433;28;20024;-72
2021/06/20 09:46:21;;;;;;;16.73;11.80;;;;;;;28.75;48.39;98138.91;5089533;28;20107;-71
2021/06/20 09:48:47;;;;;;;13.88;11.52;;;;;;;28.80;48.14;98141.25;5093039;28;20062;-71
2021/06/20 09:51:20;;;;;;;13.90;11.88;;;;;;;28.86;48.22;98138.75;5092469;28;20479;-72
2021/06/20 09:53:48;;;;;;;15.48;10.80;;;;;;;28.86;47.96;98149.22;5093167;28;20537;-71
2021/06/20 09:56:15;;;;;;;15.38;11.07;;;;;;;28.89;48.07;98145.56;5093210;28;20468;-71
2021/06/20 09:58:43;;;;;;;14.65;10.88;;;;;;;28.91;47.55;98140.28;5093007;28;20032;-70
2021/06/20 10:01:14;;;;;;;17.35;11.05;;;;;;;28.90;47.23;98139.50;5092732;28;20051;-72
2021/06/20 10:03:41;;;;;;;16.52;11.35;;;;;;;28.90;46.99;98141.50;5092855;28;20458;-72
2021/06/20 10:06:07;;;;;;;16.33;11.60;;;;;;;28.89;46.52;98139.91;5092746;28;20092;-72
2021/06/20 10:08:33;;;;;;;15.43;12.10;;;;;;;28.91;46.33;98140.28;5092793;28;20430;-71
2021/06/20 10:10:59;;;;;;;16.02;10.40;;;;;;;28.95;47.09;98141.81;5092600;28;20031;-74
2021/06/20 10:13:24;;;;;;;16.42;10.90;;;;;;;29.01;46.78;98142.13;5092211;28;20020;-74
2021/06/20 10:15:50;;;;;;;14.00;10.02;;;;;;;29.03;46.35;98144.50;5092627;28;20480;-72
2021/06/20 10:18:16;;;;;;;14.90;10.70;;;;;;;29.06;45.85;98150.13;5092119;28;20491;-73
2021/06/20 10:20:42;;;;;;;13.80;10.88;;;;;;;29.16;46.48;98150.34;5092088;28;20032;-72
2021/06/20 10:23:25;;;;;;;19.40;11.40;;;;;;;29.21;46.05;98144.19;5092286;28;20023;-74
2021/06/20 10:26:07;;;;;;;14.55;10.55;;;;;;;29.33;46.32;98137.94;5092409;28;20020;-74
2021/06/20 10:28:33;;;;;;;15.05;10.50;;;;;;;29.41;46.20;98145.09;5092681;28;20028;-73
2021/06/20 10:31:07;;;;;;;12.35;10.25;;;;;;;29.52;46.39;98144.09;5091217;28;20395;-74
2021/06/20 10:33:34;;;;;;;12.85;10.30;;;;;;;29.56;45.58;98141.97;5091949;28;20092;-73
2021/06/20 10:36:13;;;;;;;12.40;10.38;;;;;;;29.63;45.37;98139.00;5085235;28;20020;-75
2021/06/20 10:38:46;;;;;;;16.75;10.85;;;;;;;29.68;45.29;98132.84;5090636;28;20020;-75
2021/06/20 10:41:26;;;;;;;12.95;10.45;;;;;;;29.76;45.58;98132.72;5092273;28;20039;-76
2021/06/20 10:44:00;;;;;;;14.30;9.95;;;;;;;29.86;45.23;98140.19;5091762;28;20063;-78
2021/06/20 10:46:25;;;;;;;15.93;10.18;;;;;;;29.97;44.91;98128.66;5091615;28;20649;-73
2021/06/20 10:48:51;;;;;;;14.57;11.02;;;;;;;30.00;44.65;98134.25;5082090;28;20028;-73
2021/06/20 10:51:18;;;;;;;16.08;10.43;;;;;;;30.05;43.82;98123.66;5065941;28;20169;-73
2021/06/20 10:53:44;;;;;;;12.65;9.85;;;;;;;30.07;44.17;98130.47;5072413;28;20488;-73
2021/06/20 10:56:22;;;;;;;15.57;11.10;;;;;;;30.18;43.45;98135.09;5062193;28;20028;-74
2021/06/20 10:58:50;;;;;;;11.40;9.52;;;;;;;30.24;43.61;98130.50;5083197;28;20460;-72
2021/06/20 11:01:18;;;;;;;18.35;10.88;;;;;;;30.29;43.37;98125.16;5082657;28;20073;-74
2021/06/20 11:04:07;;;;;;;11.85;9.60;;;;;;;30.35;43.31;98128.25;5083824;28;20548;-74
2021/06/20 11:06:33;;;;;;;16.08;10.57;;;;;;;30.43;42.91;98126.03;5080478;28;20044;-73
2021/06/20 11:09:01;;;;;;;15.77;10.52;;;;;;;30.52;43.00;98116.97;5078577;28;20526;-72
2021/06/20 11:11:35;;;;;;;17.52;10.82;;;;;;;30.58;42.70;98120.88;5069131;28;20025;-75
2021/06/20 11:14:08;;;;;;;15.00;10.80;;;;;;;30.62;42.59;98113.09;5071843;28;20028;-82